Time;durP1;ratioP1;P1;durP2;ratioP2;P2;SDS_P1;SDS_P2;PMS_P1;PMS_P2;Temp;Humidity;BMP_temperature;BMP_pressure;BME280_temperature;BME280_humidity;BME280_pressure;Samples;Min_cycle;Max_cycle;Signal;HPM_P1;HPM_P2
2021/04/17 00:01:33;;;;;;;3.20;1.95;;;8.70;58.60;;;;;;5013903;28;20026;-75
2021/04/17 00:04:00;;;;;;;2.47;1.45;;;8.60;58.60;;;;;;5014635;28;20410;-74
2021/04/17 00:06:26;;;;;;;4.40;2.20;;;8.60;58.80;;;;;;5014335;28;20026;-74
2021/04/17 00:08:52;;;;;;;1.75;1.20;;;8.50;58.90;;;;;;5013398;28;20029;-76
2021/04/17 00:11:18;;;;;;;4.50;1.50;;;8.60;59.00;;;;;;5015565;28;20033;-76
2021/04/17 00:13:43;;;;;;;2.05;1.30;;;8.50;59.20;;;;;;5014788;28;20034;-75
2021/04/17 00:16:09;;;;;;;6.45;1.88;;;8.50;59.20;;;;;;5015048;28;20030;-75
2021/04/17 00:18:35;;;;;;;3.03;1.40;;;8.40;59.50;;;;;;5015395;28;20030;-75
2021/04/17 00:21:01;;;;;;;6.80;1.70;;;8.40;59.60;;;;;;5014350;28;20029;-75
2021/04/17 00:23:26;;;;;;;2.15;1.25;;;8.40;59.60;;;;;;5013523;28;20458;-75
2021/04/17 00:25:52;;;;;;;3.17;1.30;;;8.40;59.80;;;;;;5007131;28;20491;-75
2021/04/17 00:28:18;;;;;;;3.10;1.10;;;8.40;59.80;;;;;;5013558;28;20026;-76
2021/04/17 00:30:43;;;;;;;2.45;1.48;;;8.40;59.90;;;;;;5014465;28;20029;-76
2021/04/17 00:33:09;;;;;;;3.00;1.60;;;8.40;60.10;;;;;;5014673;28;20044;-76
2021/04/17 00:35:35;;;;;;;2.30;1.25;;;8.30;60.10;;;;;;5014772;28;20104;-76
2021/04/17 00:38:00;;;;;;;2.08;1.05;;;8.40;60.30;;;;;;5012828;28;20057;-75
2021/04/17 00:40:27;;;;;;;5.28;1.58;;;8.30;60.30;;;;;;5014472;28;20026;-76
2021/04/17 00:42:52;;;;;;;2.42;1.48;;;8.30;60.30;;;;;;5012705;28;20115;-76
2021/04/17 00:45:18;;;;;;;3.10;1.23;;;8.30;60.50;;;;;;5013073;28;20153;-75
2021/04/17 00:47:44;;;;;;;3.53;1.42;;;8.30;60.40;;;;;;5013878;28;20533;-75
2021/04/17 00:50:10;;;;;;;3.50;1.35;;;8.30;60.60;;;;;;5014859;28;20359;-76
2021/04/17 00:52:36;;;;;;;1.92;1.05;;;8.20;60.60;;;;;;5012910;28;20124;-76
2021/04/17 00:55:02;;;;;;;4.13;1.13;;;8.20;60.70;;;;;;5013601;28;20062;-76
2021/04/17 00:57:28;;;;;;;2.40;1.20;;;8.20;60.70;;;;;;5014531;28;20072;-76
2021/04/17 00:59:53;;;;;;;2.80;1.40;;;8.20;60.80;;;;;;5014157;28;20029;-75
2021/04/17 01:02:28;;;;;;;2.97;1.30;;;8.10;60.80;;;;;;5013766;28;20036;-75
2021/04/17 01:04:56;;;;;;;4.93;1.67;;;8.20;61.10;;;;;;5013878;28;20053;-75
2021/04/17 01:07:44;;;;;;;4.57;1.38;;;8.10;61.10;;;;;;5014255;28;20160;-75
2021/04/17 01:10:21;;;;;;;1.67;0.95;;;8.10;61.10;;;;;;5008492;28;20022;-75
2021/04/17 01:12:51;;;;;;;3.50;1.40;;;8.10;61.10;;;;;;4994526;28;20030;-75
2021/04/17 01:15:19;;;;;;;2.60;1.33;;;8.10;61.10;;;;;;5014357;28;20524;-75
2021/04/17 01:17:52;;;;;;;2.92;1.25;;;8.10;61.20;;;;;;5012895;28;20026;-76
2021/04/17 01:20:29;;;;;;;3.15;1.20;;;8.00;61.20;;;;;;5014590;28;20026;-75
2021/04/17 01:23:19;;;;;;;2.95;1.10;;;8.00;61.30;;;;;;5008872;28;20038;-76
2021/04/17 01:26:08;;;;;;;4.03;1.10;;;8.00;61.40;;;;;;5000892;28;20041;-76
2021/04/17 01:28:37;;;;;;;3.42;1.25;;;8.00;61.50;;;;;;5013726;28;20026;-75
2021/04/17 01:31:04;;;;;;;4.03;1.50;;;8.00;61.50;;;;;;5013479;28;20392;-75
2021/04/17 01:33:33;;;;;;;4.32;1.42;;;8.00;61.50;;;;;;5013827;28;20030;-75
2021/04/17 01:36:01;;;;;;;4.40;1.60;;;8.00;61.60;;;;;;5012914;28;20037;-75
2021/04/17 01:38:34;;;;;;;2.83;1.20;;;7.90;61.60;;;;;;5013730;28;20022;-76
2021/04/17 01:41:06;;;;;;;2.25;1.20;;;7.90;61.70;;;;;;5012458;28;20478;-75
2021/04/17 01:43:32;;;;;;;3.13;1.75;;;7.90;61.70;;;;;;5013658;28;20029;-75
2021/04/17 01:46:16;;;;;;;1.38;1.10;;;7.80;61.70;;;;;;5013210;28;20096;-75
2021/04/17 01:48:43;;;;;;;3.75;1.30;;;7.90;61.90;;;;;;5013128;28;20113;-76
2021/04/17 01:51:10;;;;;;;4.68;1.77;;;7.80;61.90;;;;;;5013576;28;20101;-76
2021/04/17 01:53:38;;;;;;;3.10;1.15;;;7.80;62.00;;;;;;5011974;28;20137;-75
2021/04/17 01:56:06;;;;;;;4.82;1.45;;;7.80;62.00;;;;;;5007997;28;20038;-75
2021/04/17 01:58:35;;;;;;;4.28;1.92;;;7.80;62.20;;;;;;5012049;28;20348;-74
2021/04/17 02:01:00;;;;;;;3.22;1.50;;;7.90;62.20;;;;;;5012626;28;20057;-75
2021/04/17 02:03:26;;;;;;;2.15;1.13;;;7.80;62.30;;;;;;5012262;28;20057;-75
2021/04/17 02:05:53;;;;;;;2.88;1.30;;;7.80;62.40;;;;;;5012419;28;20386;-76
2021/04/17 02:08:20;;;;;;;2.22;1.60;;;7.80;62.60;;;;;;5013334;28;20068;-75
2021/04/17 02:10:49;;;;;;;1.83;1.73;;;7.80;62.70;;;;;;5011190;28;20489;-78
2021/04/17 02:13:16;;;;;;;2.83;1.30;;;7.70;62.80;;;;;;5013155;28;20038;-75
2021/04/17 02:15:42;;;;;;;3.17;1.35;;;7.70;62.90;;;;;;5012185;28;20026;-76
2021/04/17 02:18:18;;;;;;;2.20;1.35;;;7.70;62.90;;;;;;5011659;28;20030;-74
2021/04/17 02:20:52;;;;;;;2.88;1.58;;;7.70;63.00;;;;;;5013910;28;20030;-75
2021/04/17 02:23:20;;;;;;;2.80;1.38;;;7.70;63.10;;;;;;5012878;28;20432;-73
2021/04/17 02:25:46;;;;;;;4.63;1.52;;;7.70;63.20;;;;;;5008452;28;20451;-75
2021/04/17 02:28:12;;;;;;;6.88;1.63;;;7.70;63.40;;;;;;4994590;28;20029;-75
2021/04/17 02:30:38;;;;;;;4.32;1.40;;;7.70;63.40;;;;;;5012462;28;20034;-75
2021/04/17 02:33:04;;;;;;;2.90;1.30;;;7.70;63.40;;;;;;5010881;28;20128;-75
2021/04/17 02:35:30;;;;;;;3.13;1.67;;;7.70;63.40;;;;;;5012412;28;20057;-75
2021/04/17 02:37:56;;;;;;;2.65;1.25;;;7.60;63.50;;;;;;5027492;28;20117;-74
2021/04/17 02:40:22;;;;;;;1.27;0.98;;;7.60;63.70;;;;;;5012453;28;20446;-75
2021/04/17 02:42:48;;;;;;;2.95;1.23;;;7.60;63.90;;;;;;5011127;28;20474;-75
2021/04/17 02:45:14;;;;;;;3.80;1.58;;;7.50;63.90;;;;;;5012334;28;20192;-74
2021/04/17 02:47:40;;;;;;;3.60;1.65;;;7.50;64.00;;;;;;5011357;28;20470;-75
2021/04/17 02:50:06;;;;;;;3.45;1.25;;;7.40;64.80;;;;;;5007378;28;20077;-75
2021/04/17 02:52:31;;;;;;;1.40;1.20;;;7.50;64.40;;;;;;4993013;28;20518;-75
2021/04/17 02:54:57;;;;;;;3.95;1.50;;;7.40;64.40;;;;;;4993047;28;20077;-76
2021/04/17 02:57:23;;;;;;;1.13;0.90;;;7.40;64.40;;;;;;5012145;28;20026;-75
2021/04/17 02:59:49;;;;;;;3.83;1.40;;;7.40;64.50;;;;;;5011088;28;20025;-74
2021/04/17 03:02:14;;;;;;;2.50;1.50;;;7.40;64.60;;;;;;5011146;28;20034;-75
2021/04/17 03:04:41;;;;;;;2.90;1.23;;;7.40;64.60;;;;;;5012557;28;20116;-74
2021/04/17 03:07:07;;;;;;;3.88;2.05;;;7.40;64.70;;;;;;5012225;28;20100;-75
2021/04/17 03:09:32;;;;;;;3.17;1.25;;;7.40;64.80;;;;;;5012674;28;20161;-75
2021/04/17 03:11:58;;;;;;;2.33;1.30;;;7.40;64.80;;;;;;5011818;28;20045;-75
2021/04/17 03:14:23;;;;;;;9.00;1.40;;;7.30;65.00;;;;;;5012584;28;20034;-74
2021/04/17 03:16:50;;;;;;;4.65;1.45;;;7.30;65.20;;;;;;5012313;28;20474;-74
2021/04/17 03:19:16;;;;;;;4.28;1.50;;;7.30;65.20;;;;;;5012052;28;20049;-76
2021/04/17 03:21:42;;;;;;;5.32;2.55;;;7.30;65.30;;;;;;5007147;28;20058;-75
2021/04/17 03:24:07;;;;;;;5.38;1.60;;;7.30;65.20;;;;;;4995842;28;20088;-75
2021/04/17 03:26:33;;;;;;;6.45;1.35;;;7.30;65.30;;;;;;5010804;28;20018;-75
2021/04/17 03:28:59;;;;;;;2.88;1.35;;;7.30;65.30;;;;;;5011404;28;20100;-75
2021/04/17 03:31:25;;;;;;;2.13;1.20;;;7.30;65.50;;;;;;5011680;28;20030;-76
2021/04/17 03:33:50;;;;;;;4.43;1.40;;;7.30;65.70;;;;;;5010818;28;20018;-75
2021/04/17 03:36:16;;;;;;;2.80;1.27;;;7.30;65.80;;;;;;5011303;28;20068;-75
2021/04/17 03:38:42;;;;;;;4.60;1.38;;;7.30;65.90;;;;;;5011998;28;20080;-75
2021/04/17 03:41:08;;;;;;;1.77;1.25;;;7.30;66.00;;;;;;5010271;28;20025;-76
2021/04/17 03:43:33;;;;;;;3.15;1.42;;;7.20;66.00;;;;;;5012301;28;20030;-76
2021/04/17 03:45:59;;;;;;;4.53;1.48;;;7.20;66.10;;;;;;5006591;28;20455;-75
2021/04/17 03:48:24;;;;;;;2.65;1.17;;;7.20;66.20;;;;;;4992152;28;20031;-75
2021/04/17 03:50:50;;;;;;;2.70;1.73;;;7.20;66.30;;;;;;5006529;28;20026;-76
2021/04/17 03:53:16;;;;;;;2.17;1.30;;;7.20;66.50;;;;;;5010955;28;20470;-76
2021/04/17 03:55:42;;;;;;;1.90;1.20;;;7.10;66.50;;;;;;5011703;28;20088;-75
2021/04/17 03:58:08;;;;;;;4.80;1.33;;;7.10;66.60;;;;;;5010074;28;20030;-75
2021/04/17 04:00:34;;;;;;;1.60;1.10;;;7.10;66.70;;;;;;5009082;28;20026;-76
2021/04/17 04:03:00;;;;;;;2.88;1.27;;;7.20;66.70;;;;;;5010941;28;20386;-76
2021/04/17 04:05:26;;;;;;;1.80;1.10;;;7.10;66.70;;;;;;5006848;28;20401;-75
2021/04/17 04:07:52;;;;;;;1.50;1.10;;;7.10;66.90;;;;;;4993682;28;20443;-75
2021/04/17 04:10:18;;;;;;;2.20;1.02;;;7.10;66.90;;;;;;5005824;28;20018;-75
2021/04/17 04:12:44;;;;;;;2.55;1.15;;;7.10;67.00;;;;;;4998731;28;20076;-75
2021/04/17 04:15:12;;;;;;;2.78;1.38;;;7.20;67.00;;;;;;5009267;28;20026;-76
2021/04/17 04:17:38;;;;;;;3.03;1.35;;;7.20;67.20;;;;;;4994320;28;20033;-75
2021/04/17 04:20:05;;;;;;;4.22;1.40;;;7.10;67.20;;;;;;4991503;28;20022;-75
2021/04/17 04:22:35;;;;;;;3.80;1.63;;;7.20;67.20;;;;;;5002660;28;20466;-75
2021/04/17 04:25:01;;;;;;;3.03;1.33;;;7.20;67.30;;;;;;5010958;28;20494;-76
2021/04/17 04:27:27;;;;;;;2.10;1.38;;;7.20;67.30;;;;;;5011734;28;20077;-76
2021/04/17 04:29:53;;;;;;;1.30;0.90;;;7.20;67.40;;;;;;5011430;28;20022;-76
2021/04/17 04:32:18;;;;;;;3.40;1.42;;;7.20;67.40;;;;;;5006754;28;20035;-75
2021/04/17 04:34:44;;;;;;;1.58;1.13;;;7.20;67.50;;;;;;4991537;28;20100;-75
2021/04/17 04:37:10;;;;;;;2.25;1.20;;;7.20;67.50;;;;;;5009702;28;20034;-75
2021/04/17 04:39:35;;;;;;;2.75;1.13;;;7.10;67.70;;;;;;5012072;28;20021;-75
2021/04/17 04:42:01;;;;;;;1.58;1.10;;;7.10;67.80;;;;;;5014522;28;20034;-75
2021/04/17 04:44:27;;;;;;;1.77;1.00;;;7.10;67.80;;;;;;5014659;28;20022;-75
2021/04/17 04:46:52;;;;;;;3.17;1.30;;;7.10;67.90;;;;;;5013938;28;20106;-75
2021/04/17 04:49:18;;;;;;;3.33;1.27;;;7.10;68.30;;;;;;5013717;28;20026;-75
2021/04/17 04:51:44;;;;;;;2.78;1.30;;;7.10;68.40;;;;;;5014608;28;20157;-75
2021/04/17 04:54:10;;;;;;;3.85;1.30;;;7.10;68.50;;;;;;5012288;28;20410;-75
2021/04/17 04:56:35;;;;;;;3.20;1.50;;;7.10;68.60;;;;;;5014373;28;20117;-76
2021/04/17 04:59:01;;;;;;;9.02;2.10;;;7.00;68.60;;;;;;5013965;28;20363;-76
2021/04/17 05:01:27;;;;;;;2.05;1.35;;;7.00;68.80;;;;;;5013980;28;20398;-75
2021/04/17 05:03:52;;;;;;;2.80;1.45;;;7.00;69.00;;;;;;5014403;28;20025;-76
2021/04/17 05:06:18;;;;;;;2.75;1.08;;;7.00;68.90;;;;;;5012809;28;20656;-75
2021/04/17 05:08:44;;;;;;;2.53;1.10;;;7.10;69.00;;;;;;5013799;28;20068;-76
2021/04/17 05:11:10;;;;;;;1.95;1.20;;;7.00;69.00;;;;;;5014327;28;20053;-75
2021/04/17 05:13:36;;;;;;;2.17;1.27;;;7.10;69.10;;;;;;5014091;28;20113;-75
2021/04/17 05:16:01;;;;;;;6.97;1.50;;;7.10;69.00;;;;;;5013157;28;20113;-76
2021/04/17 05:18:27;;;;;;;3.00;1.27;;;7.10;69.10;;;;;;5014172;28;20466;-75
2021/04/17 05:20:52;;;;;;;3.03;1.33;;;7.10;69.20;;;;;;5013831;28;20087;-75
2021/04/17 05:23:18;;;;;;;1.83;1.25;;;7.10;69.30;;;;;;5013319;28;20030;-75
2021/04/17 05:25:44;;;;;;;1.42;1.08;;;7.10;69.40;;;;;;5029151;28;20369;-74
2021/04/17 05:28:11;;;;;;;2.30;1.35;;;7.10;69.40;;;;;;5008565;28;20080;-75
2021/04/17 05:30:37;;;;;;;2.25;1.00;;;7.10;69.50;;;;;;5005897;28;20026;-75
2021/04/17 05:33:04;;;;;;;3.55;1.40;;;7.10;69.60;;;;;;5013424;28;20079;-76
2021/04/17 05:35:29;;;;;;;2.58;1.40;;;7.10;69.70;;;;;;5013559;28;20099;-75
2021/04/17 05:37:55;;;;;;;1.90;1.20;;;7.20;69.90;;;;;;5029162;28;20105;-75
2021/04/17 05:40:21;;;;;;;2.33;1.08;;;7.20;69.80;;;;;;5011171;28;20475;-75
2021/04/17 05:42:46;;;;;;;2.13;1.13;;;7.20;69.80;;;;;;5012630;28;20037;-76
2021/04/17 05:45:13;;;;;;;3.15;1.55;;;7.20;69.90;;;;;;5012648;28;20037;-76
2021/04/17 05:47:38;;;;;;;0.80;0.80;;;7.20;70.00;;;;;;5008803;28;20030;-75
2021/04/17 05:50:05;;;;;;;3.20;1.40;;;7.20;70.00;;;;;;4993815;28;20032;-75
2021/04/17 05:52:30;;;;;;;3.45;1.38;;;7.20;70.00;;;;;;4991783;28;20450;-75
2021/04/17 05:54:56;;;;;;;1.80;0.98;;;7.20;70.20;;;;;;5010211;28;20133;-76
2021/04/17 05:57:22;;;;;;;3.22;1.27;;;7.20;70.10;;;;;;5007974;28;20962;-75
2021/04/17 05:59:47;;;;;;;0.95;0.80;;;7.30;70.10;;;;;;5011168;28;20025;-76
2021/04/17 06:02:13;;;;;;;1.88;1.20;;;7.30;70.30;;;;;;5027907;28;20041;-75
2021/04/17 06:04:39;;;;;;;2.28;1.10;;;7.30;70.30;;;;;;5013598;28;20036;-75
2021/04/17 06:07:04;;;;;;;2.45;1.20;;;7.30;70.30;;;;;;5011584;28;20513;-75
2021/04/17 06:09:30;;;;;;;1.65;1.02;;;7.40;70.50;;;;;;5013209;28;20030;-75
2021/04/17 06:11:56;;;;;;;2.88;1.20;;;7.40;70.80;;;;;;5013071;28;20068;-74
2021/04/17 06:14:22;;;;;;;1.83;0.90;;;7.40;70.90;;;;;;5012296;28;20041;-74
2021/04/17 06:16:48;;;;;;;1.05;0.95;;;7.30;70.80;;;;;;5011636;28;20026;-77
2021/04/17 06:19:13;;;;;;;2.10;0.90;;;7.40;70.90;;;;;;5008831;28;20427;-77
2021/04/17 06:21:39;;;;;;;2.28;1.05;;;7.40;70.70;;;;;;5009457;28;20022;-75
2021/04/17 06:24:05;;;;;;;2.42;1.15;;;7.50;70.60;;;;;;5010465;28;20438;-78
2021/04/17 06:26:31;;;;;;;6.70;1.27;;;7.50;70.60;;;;;;5012388;28;20088;-76
2021/04/17 06:28:58;;;;;;;2.97;0.80;;;7.50;70.60;;;;;;5011546;28;20355;-77
2021/04/17 06:31:23;;;;;;;2.95;1.10;;;7.60;70.80;;;;;;5011022;28;20026;-77
2021/04/17 06:33:50;;;;;;;2.72;0.95;;;7.60;70.90;;;;;;5007608;28;20038;-76
2021/04/17 06:36:16;;;;;;;2.08;1.00;;;7.60;70.90;;;;;;4997580;28;20018;-77
2021/04/17 06:38:41;;;;;;;1.70;1.05;;;7.70;71.00;;;;;;5011742;28;20037;-76
2021/04/17 06:41:08;;;;;;;1.90;0.98;;;7.70;70.80;;;;;;5010903;28;20037;-74
2021/04/17 06:43:41;;;;;;;2.50;1.15;;;7.80;71.00;;;;;;5010119;28;20454;-75
2021/04/17 06:46:09;;;;;;;2.22;1.10;;;7.80;70.90;;;;;;5012351;28;20411;-75
2021/04/17 06:48:38;;;;;;;1.20;0.88;;;7.80;70.70;;;;;;5012353;28;20117;-75
2021/04/17 06:51:04;;;;;;;1.90;0.73;;;7.90;70.60;;;;;;5012629;28;20347;-73
2021/04/17 06:53:35;;;;;;;1.65;0.88;;;7.90;70.40;;;;;;5011709;28;20506;-74
2021/04/17 06:56:01;;;;;;;2.05;1.45;;;8.00;70.50;;;;;;5011242;28;20057;-75
2021/04/17 06:58:26;;;;;;;2.88;1.05;;;8.00;70.30;;;;;;5012151;28;20061;-74
2021/04/17 07:00:52;;;;;;;1.70;0.93;;;8.10;70.20;;;;;;5012003;28;20458;-74
2021/04/17 07:03:18;;;;;;;1.48;0.98;;;8.10;70.10;;;;;;5011584;28;20072;-72
2021/04/17 07:05:44;;;;;;;1.50;0.98;;;8.10;69.90;;;;;;5012448;28;20033;-75
2021/04/17 07:08:10;;;;;;;2.25;0.80;;;8.20;69.80;;;;;;5026715;28;20030;-74
2021/04/17 07:10:36;;;;;;;1.63;1.10;;;8.20;69.60;;;;;;5011977;28;20097;-74
2021/04/17 07:13:13;;;;;;;2.20;1.05;;;8.30;69.60;;;;;;5012139;28;20056;-74
2021/04/17 07:15:40;;;;;;;0.77;0.70;;;8.40;69.40;;;;;;5012288;28;20022;-75
2021/04/17 07:18:29;;;;;;;1.90;1.25;;;8.40;69.20;;;;;;5010508;28;20132;-75
2021/04/17 07:20:58;;;;;;;1.42;0.80;;;8.50;69.00;;;;;;5010365;28;20470;-75
2021/04/17 07:23:30;;;;;;;3.15;0.90;;;8.50;68.80;;;;;;5007508;28;20041;-74
2021/04/17 07:26:26;;;;;;;1.92;0.80;;;8.60;68.50;;;;;;5008620;28;20037;-75
2021/04/17 07:28:55;;;;;;;1.35;0.80;;;8.60;68.00;;;;;;4993545;28;20164;-73
2021/04/17 07:31:25;;;;;;;3.28;1.00;;;8.60;68.00;;;;;;5010713;28;20080;-75
2021/04/17 07:33:51;;;;;;;2.53;1.33;;;8.60;67.70;;;;;;5010590;28;20034;-75
2021/04/17 07:36:18;;;;;;;3.08;0.90;;;8.60;67.60;;;;;;5006634;28;20026;-76
2021/04/17 07:38:45;;;;;;;1.00;0.90;;;8.70;67.40;;;;;;4997619;28;20029;-75
2021/04/17 07:41:12;;;;;;;1.73;0.98;;;8.70;67.50;;;;;;5011847;28;20028;-78
2021/04/17 07:43:59;;;;;;;2.97;1.20;;;8.80;67.30;;;;;;5011836;28;20516;-75
2021/04/17 07:46:39;;;;;;;2.35;0.90;;;8.80;67.10;;;;;;5011107;28;20153;-74
2021/04/17 07:49:15;;;;;;;5.47;0.90;;;8.90;66.90;;;;;;5008594;28;20052;-76
2021/04/17 07:52:02;;;;;;;1.48;0.63;;;9.00;66.70;;;;;;5007545;28;20362;-75
2021/04/17 07:54:29;;;;;;;1.67;0.88;;;9.00;66.50;;;;;;5010320;28;20042;-75
2021/04/17 07:56:56;;;;;;;2.45;0.80;;;9.10;66.30;;;;;;5010442;28;20034;-75
2021/04/17 07:59:24;;;;;;;1.60;1.02;;;9.10;66.10;;;;;;5005839;28;20113;-75
2021/04/17 08:01:51;;;;;;;2.50;1.08;;;9.10;65.80;;;;;;5005214;28;20018;-75
2021/04/17 08:04:26;;;;;;;2.17;0.98;;;9.20;65.70;;;;;;5009850;28;20030;-75
2021/04/17 08:06:54;;;;;;;0.90;0.52;;;9.30;65.60;;;;;;5010235;28;20053;-76
2021/04/17 08:09:24;;;;;;;0.70;0.70;;;9.30;65.10;;;;;;5009757;28;20470;-76
2021/04/17 08:11:56;;;;;;;2.03;0.63;;;9.40;64.40;;;;;;5010430;28;20079;-75
2021/04/17 08:14:24;;;;;;;1.77;0.80;;;9.40;64.30;;;;;;5011478;28;20022;-75
2021/04/17 08:16:50;;;;;;;2.00;0.75;;;9.40;64.30;;;;;;5015165;28;20030;-76
2021/04/17 08:19:17;;;;;;;0.68;0.68;;;9.50;64.20;;;;;;5014296;28;20022;-75
2021/04/17 08:21:43;;;;;;;1.65;0.70;;;9.50;64.00;;;;;;5013962;28;20033;-72
2021/04/17 08:24:10;;;;;;;0.70;0.70;;;9.60;63.60;;;;;;5010362;28;20382;-76
2021/04/17 08:26:37;;;;;;;0.90;0.68;;;9.60;63.50;;;;;;5011850;28;20100;-75
2021/04/17 08:29:03;;;;;;;2.13;0.75;;;9.70;63.40;;;;;;5015490;28;20014;-71
2021/04/17 08:31:36;;;;;;;2.15;0.80;;;9.70;63.20;;;;;;5014993;28;20030;-75
2021/04/17 08:34:18;;;;;;;2.35;1.20;;;9.80;63.00;;;;;;5014782;28;20029;-75
2021/04/17 08:36:49;;;;;;;2.28;0.80;;;9.80;63.00;;;;;;4995137;28;20078;-75
2021/04/17 08:39:33;;;;;;;;;;;9.90;62.90;;;;;;5006385;28;20408;-77
2021/04/17 08:42:04;;;;;;;1.98;1.10;;;9.90;62.40;;;;;;5013204;28;19913;-75
2021/04/17 08:44:40;;;;;;;1.20;0.60;;;10.00;62.00;;;;;;5012261;28;20025;-75
2021/04/17 08:47:08;;;;;;;1.67;0.90;;;10.10;61.80;;;;;;5012864;28;20031;-76
2021/04/17 08:49:38;;;;;;;1.98;0.90;;;10.10;61.50;;;;;;5011173;28;20440;-76
2021/04/17 08:52:25;;;;;;;1.52;1.10;;;10.20;61.30;;;;;;5012413;28;20444;-75
2021/04/17 08:54:54;;;;;;;0.65;0.65;;;10.20;61.10;;;;;;5011326;28;20074;-75
2021/04/17 08:57:21;;;;;;;0.63;0.52;;;10.20;60.80;;;;;;5006256;28;20026;-76
2021/04/17 08:59:55;;;;;;;0.60;0.60;;;10.20;60.50;;;;;;5013085;28;20482;-76
2021/04/17 09:02:22;;;;;;;1.85;0.88;;;10.40;60.20;;;;;;5011149;28;20079;-75
2021/04/17 09:05:12;;;;;;;1.20;0.75;;;10.40;59.80;;;;;;5010063;28;20030;-76
2021/04/17 09:07:44;;;;;;;2.55;0.85;;;10.50;59.40;;;;;;5012470;28;20075;-76
2021/04/17 09:10:28;;;;;;;1.60;0.90;;;10.50;58.90;;;;;;5011865;28;20025;-76
2021/04/17 09:13:09;;;;;;;1.55;0.73;;;10.60;58.00;;;;;;5011391;28;20145;-75
2021/04/17 09:15:52;;;;;;;1.02;0.60;;;10.60;57.70;;;;;;5010057;28;20026;-76
2021/04/17 09:18:37;;;;;;;0.63;0.50;;;10.70;57.40;;;;;;5012752;28;20499;-78
2021/04/17 09:21:09;;;;;;;0.98;0.73;;;10.80;57.20;;;;;;5010117;28;20018;-76
2021/04/17 09:23:35;;;;;;;1.02;0.60;;;10.80;57.10;;;;;;4992434;28;20549;-75
2021/04/17 09:26:01;;;;;;;0.60;0.60;;;10.80;57.00;;;;;;4992618;28;20438;-76
2021/04/17 09:28:35;;;;;;;1.98;0.68;;;10.90;56.20;;;;;;4993593;28;20023;-75
2021/04/17 09:31:02;;;;;;;3.47;0.90;;;10.90;55.60;;;;;;4994687;28;20018;-76
2021/04/17 09:33:28;;;;;;;0.75;0.57;;;11.00;55.30;;;;;;5008496;28;20486;-75
2021/04/17 09:35:54;;;;;;;1.48;0.75;;;11.00;55.10;;;;;;4994059;28;20098;-76
2021/04/17 09:38:22;;;;;;;1.75;0.68;;;11.10;55.00;;;;;;4994308;28;20073;-78
2021/04/17 09:40:52;;;;;;;1.30;0.60;;;11.10;54.70;;;;;;4994351;28;20026;-75
2021/04/17 09:43:27;;;;;;;6.28;1.05;;;11.30;54.20;;;;;;4994391;28;20026;-75
2021/04/17 09:45:54;;;;;;;1.05;0.90;;;11.40;54.10;;;;;;4994108;28;20068;-75
2021/04/17 09:48:22;;;;;;;2.63;0.63;;;11.50;54.00;;;;;;4994056;28;20023;-75
2021/04/17 09:50:50;;;;;;;3.38;1.10;;;11.60;53.90;;;;;;4993841;28;20041;-74
2021/04/17 09:53:23;;;;;;;0.93;0.70;;;11.60;53.70;;;;;;4992483;28;20022;-75
2021/04/17 09:55:50;;;;;;;3.22;1.27;;;11.80;53.60;;;;;;4994209;28;20018;-76
2021/04/17 09:58:29;;;;;;;0.98;0.60;;;11.90;53.50;;;;;;4993948;28;20062;-75
2021/04/17 10:01:03;;;;;;;1.88;0.70;;;12.10;53.20;;;;;;5009098;28;20026;-75
2021/04/17 10:03:31;;;;;;;1.10;0.50;;;12.20;52.70;;;;;;4992884;28;20057;-76
2021/04/17 10:05:57;;;;;;;2.55;0.73;;;12.30;52.60;;;;;;4993733;28;20038;-76
2021/04/17 10:08:30;;;;;;;1.10;0.63;;;12.40;52.50;;;;;;4993229;28;20030;-75
2021/04/17 10:10:56;;;;;;;1.67;0.85;;;12.50;52.50;;;;;;4992121;28;20033;-75
2021/04/17 10:13:39;;;;;;;2.42;1.02;;;12.50;52.40;;;;;;4993554;28;20030;-75
2021/04/17 10:16:06;;;;;;;0.95;0.70;;;12.70;52.40;;;;;;4993720;28;20026;-76
2021/04/17 10:18:33;;;;;;;1.88;0.88;;;12.70;52.50;;;;;;4992966;28;20027;-75
2021/04/17 10:20:58;;;;;;;1.67;1.17;;;12.80;52.40;;;;;;4993764;28;20073;-75
2021/04/17 10:23:24;;;;;;;1.90;1.38;;;12.90;52.30;;;;;;4991588;28;20462;-73
2021/04/17 10:25:50;;;;;;;2.85;0.90;;;12.90;52.10;;;;;;4993462;28;20081;-75
2021/04/17 10:28:21;;;;;;;3.85;0.88;;;12.90;52.10;;;;;;4992210;28;20037;-75
2021/04/17 10:30:49;;;;;;;3.20;0.90;;;12.80;52.10;;;;;;4992828;28;20018;-76
2021/04/17 10:33:23;;;;;;;1.27;0.95;;;12.80;52.20;;;;;;4993246;28;20113;-75
2021/04/17 10:35:51;;;;;;;1.58;0.68;;;12.80;52.80;;;;;;4992686;28;20054;-76
2021/04/17 10:38:36;;;;;;;1.63;0.80;;;12.90;52.20;;;;;;5007755;28;20019;-76
2021/04/17 10:41:03;;;;;;;3.20;1.02;;;13.00;52.10;;;;;;5008786;28;20058;-75
2021/04/17 10:43:30;;;;;;;1.70;0.82;;;13.10;51.90;;;;;;5007723;28;20026;-76
2021/04/17 10:45:58;;;;;;;2.47;0.85;;;13.20;51.40;;;;;;5008239;28;20098;-75
2021/04/17 10:48:25;;;;;;;2.78;0.60;;;13.20;51.20;;;;;;4993461;28;20101;-76
2021/04/17 10:50:51;;;;;;;1.63;0.82;;;13.20;51.10;;;;;;4992819;28;20033;-76
2021/04/17 10:53:21;;;;;;;0.50;0.50;;;13.20;51.20;;;;;;4992957;28;20450;-75
2021/04/17 10:55:49;;;;;;;3.08;1.15;;;13.30;51.10;;;;;;5007407;28;20494;-76
2021/04/17 10:58:35;;;;;;;1.45;0.73;;;13.50;50.80;;;;;;4991729;28;20038;-76
2021/04/17 11:01:10;;;;;;;2.45;1.00;;;13.60;50.40;;;;;;5007978;28;20463;-76
2021/04/17 11:03:44;;;;;;;2.17;0.60;;;13.60;50.40;;;;;;4992124;28;20101;-76
2021/04/17 11:06:15;;;;;;;1.98;0.82;;;13.70;50.40;;;;;;5007627;28;20050;-75
2021/04/17 11:08:42;;;;;;;2.03;1.00;;;13.70;50.50;;;;;;4992237;28;20022;-77
2021/04/17 11:11:16;;;;;;;1.92;0.77;;;13.80;50.30;;;;;;4992459;28;20026;-76
2021/04/17 11:13:43;;;;;;;2.65;1.48;;;13.90;50.20;;;;;;4992252;28;20034;-75
2021/04/17 11:16:13;;;;;;;1.63;0.90;;;13.90;49.80;;;;;;4992773;28;20463;-75
2021/04/17 11:18:41;;;;;;;2.25;0.80;;;13.90;49.50;;;;;;5007005;28;20076;-75
2021/04/17 11:21:15;;;;;;;0.98;0.70;;;13.80;49.50;;;;;;5007480;28;20474;-76
2021/04/17 11:23:41;;;;;;;4.15;0.68;;;13.80;49.80;;;;;;4991966;28;20030;-76
2021/04/17 11:26:28;;;;;;;1.85;0.90;;;13.80;49.90;;;;;;4992544;28;20054;-75
2021/04/17 11:28:59;;;;;;;1.20;0.60;;;14.00;49.80;;;;;;4992743;28;20102;-76
2021/04/17 11:31:26;;;;;;;2.75;0.88;;;14.20;49.40;;;;;;4993074;28;20033;-75
2021/04/17 11:33:54;;;;;;;1.80;1.02;;;14.30;49.00;;;;;;4991608;28;20034;-75
2021/04/17 11:36:22;;;;;;;1.02;0.73;;;14.50;48.50;;;;;;5007423;28;20018;-76
2021/04/17 11:38:49;;;;;;;1.15;0.70;;;14.60;48.10;;;;;;4991620;28;20390;-75
2021/04/17 11:41:14;;;;;;;1.23;0.60;;;14.70;48.30;;;;;;5007482;28;20026;-75
2021/04/17 11:43:40;;;;;;;0.70;0.70;;;14.80;48.40;;;;;;4990513;28;20034;-76
2021/04/17 11:46:06;;;;;;;0.77;0.47;;;14.80;48.20;;;;;;5007408;28;20386;-77
2021/04/17 11:48:32;;;;;;;4.35;1.65;;;14.90;47.70;;;;;;5006897;28;20470;-77
2021/04/17 11:50:58;;;;;;;1.20;0.90;;;15.00;47.20;;;;;;4994878;28;20073;-76
2021/04/17 11:53:24;;;;;;;1.08;0.60;;;15.10;46.70;;;;;;4994555;28;20566;-75
2021/04/17 11:55:50;;;;;;;1.45;0.82;;;15.20;46.90;;;;;;4993896;28;20529;-76
2021/04/17 11:58:17;;;;;;;1.63;0.82;;;15.30;47.20;;;;;;4996275;28;20069;-76
2021/04/17 12:00:42;;;;;;;2.30;0.93;;;15.30;47.10;;;;;;4995489;28;20489;-76
2021/04/17 12:03:08;;;;;;;1.55;0.70;;;15.40;46.60;;;;;;4996413;28;20034;-76
2021/04/17 12:05:34;;;;;;;1.63;0.77;;;15.50;46.60;;;;;;4995519;28;20037;-76
2021/04/17 12:08:00;;;;;;;1.42;0.60;;;15.60;46.80;;;;;;4996187;28;20023;-75
2021/04/17 12:10:26;;;;;;;3.45;1.10;;;15.70;46.80;;;;;;4995863;28;20425;-75
2021/04/17 12:12:52;;;;;;;2.35;0.77;;;15.60;46.40;;;;;;5010315;28;20297;-75
2021/04/17 12:15:18;;;;;;;1.42;0.88;;;15.50;46.80;;;;;;4994600;28;20018;-75
2021/04/17 12:17:44;;;;;;;1.70;1.08;;;15.50;46.70;;;;;;4995295;28;20107;-75
2021/04/17 12:20:11;;;;;;;1.00;0.52;;;15.40;46.10;;;;;;4994473;28;20062;-76
2021/04/17 12:22:37;;;;;;;1.42;0.80;;;15.30;46.30;;;;;;5010013;28;20117;-75
2021/04/17 12:25:05;;;;;;;1.17;0.93;;;15.10;46.50;;;;;;5010388;28;20029;-75
2021/04/17 12:27:30;;;;;;;1.08;0.70;;;15.10;46.60;;;;;;5010736;28;20358;-75
2021/04/17 12:29:58;;;;;;;1.40;0.63;;;15.20;46.60;;;;;;4995010;28;20081;-76
2021/04/17 12:32:26;;;;;;;2.55;0.90;;;15.30;46.40;;;;;;5010572;28;20125;-76
2021/04/17 12:34:52;;;;;;;1.05;0.60;;;15.40;46.90;;;;;;4995054;28;20105;-76
2021/04/17 12:37:18;;;;;;;2.08;0.77;;;15.30;47.00;;;;;;5010156;28;20019;-75
2021/04/17 12:39:44;;;;;;;0.95;0.60;;;15.30;46.50;;;;;;5009932;28;20029;-76
2021/04/17 12:42:09;;;;;;;1.85;0.60;;;15.30;46.60;;;;;;4995664;28;20496;-76
2021/04/17 12:44:35;;;;;;;1.75;1.15;;;15.50;46.70;;;;;;4994671;28;20094;-76
2021/04/17 12:47:01;;;;;;;1.85;0.80;;;15.70;46.40;;;;;;4995549;28;20034;-76
2021/04/17 12:49:29;;;;;;;3.88;0.65;;;15.90;46.20;;;;;;5010166;28;20038;-75
2021/04/17 12:51:55;;;;;;;1.80;0.75;;;16.10;45.80;;;;;;4994886;28;20034;-75
2021/04/17 12:54:21;;;;;;;2.45;0.90;;;16.10;45.60;;;;;;4995172;28;20057;-75
2021/04/17 12:56:46;;;;;;;1.33;0.70;;;16.10;45.70;;;;;;4993553;28;20022;-76
2021/04/17 12:59:12;;;;;;;3.17;0.93;;;16.10;46.00;;;;;;4993857;28;20383;-77